Time;durP1;ratioP1;P1;durP2;ratioP2;P2;SDS_P1;SDS_P2;PMS_P1;PMS_P2;Temp;Humidity;BMP_temperature;BMP_pressure;BME280_temperature;BME280_humidity;BME280_pressure;Samples;Min_cycle;Max_cycle;Signal;HPM_P1;HPM_P2
2022/07/03 00:01:25;;;;;;;8.55;2.35;;;18.80;99.90;;;;;;4992559;28;20238;-80
2022/07/03 00:03:52;;;;;;;5.50;2.03;;;18.80;99.90;;;;;;4993795;28;20231;-81
2022/07/03 00:06:18;;;;;;;5.45;1.70;;;18.60;99.90;;;;;;4992599;28;20574;-80
2022/07/03 00:08:43;;;;;;;3.85;1.80;;;18.50;99.90;;;;;;4993609;28;20216;-80
2022/07/03 00:11:09;;;;;;;3.58;1.77;;;18.60;99.90;;;;;;4993644;28;20248;-80
2022/07/03 00:13:35;;;;;;;2.80;1.50;;;18.60;99.90;;;;;;4993514;28;20169;-81
2022/07/03 00:16:01;;;;;;;8.48;1.70;;;18.50;99.90;;;;;;4993579;28;20176;-80
2022/07/03 00:18:27;;;;;;;1.30;1.20;;;18.60;99.90;;;;;;4993333;28;20650;-80
2022/07/03 00:21:04;;;;;;;5.45;1.73;;;18.70;99.90;;;;;;4992672;28;20296;-81
2022/07/03 00:23:45;;;;;;;3.55;1.77;;;18.60;99.90;;;;;;4993337;28;20164;-80
2022/07/03 00:26:18;;;;;;;2.95;1.60;;;18.70;99.90;;;;;;4991983;28;20165;-80
2022/07/03 00:28:45;;;;;;;5.82;1.80;;;18.60;99.90;;;;;;4993127;28;20197;-80
2022/07/03 00:31:11;;;;;;;2.33;2.13;;;18.70;99.90;;;;;;4993179;28;20177;-80
2022/07/03 00:33:38;;;;;;;6.47;2.03;;;18.90;99.90;;;;;;4993248;28;20188;-81
2022/07/03 00:36:04;;;;;;;3.53;1.73;;;18.80;99.90;;;;;;4993277;28;20176;-80
2022/07/03 00:38:30;;;;;;;12.10;1.88;;;18.70;99.90;;;;;;4993141;28;20189;-80
2022/07/03 00:40:55;;;;;;;7.47;1.52;;;18.60;99.90;;;;;;4993107;28;20208;-81
2022/07/03 00:43:21;;;;;;;2.97;1.23;;;18.60;99.90;;;;;;4993177;28;20674;-80
2022/07/03 00:45:49;;;;;;;3.80;1.30;;;18.80;99.90;;;;;;4993382;28;20188;-81
2022/07/03 00:48:22;;;;;;;1.25;0.95;;;18.90;99.90;;;;;;4992899;28;20213;-80
2022/07/03 00:50:51;;;;;;;1.77;1.15;;;18.80;99.90;;;;;;4992838;28;20169;-80
2022/07/03 00:53:28;;;;;;;6.90;1.98;;;18.80;99.90;;;;;;4993100;28;20498;-80
2022/07/03 00:55:55;;;;;;;5.55;1.30;;;18.70;99.90;;;;;;4991639;28;20239;-81
2022/07/03 00:58:21;;;;;;;4.13;1.45;;;18.70;99.90;;;;;;4992748;28;20205;-81
2022/07/03 01:00:51;;;;;;;5.25;1.00;;;18.60;99.90;;;;;;4991341;28;20216;-82
2022/07/03 01:03:20;;;;;;;3.72;1.20;;;18.70;99.90;;;;;;4992914;28;20175;-80
2022/07/03 01:05:51;;;;;;;3.17;1.27;;;18.70;99.90;;;;;;4991907;28;20540;-80
2022/07/03 01:08:45;;;;;;;2.22;0.90;;;18.70;99.90;;;;;;4992817;28;20185;-80
2022/07/03 01:11:24;;;;;;;10.30;0.93;;;18.60;99.90;;;;;;5005835;28;20181;-81
2022/07/03 01:14:15;;;;;;;1.25;0.90;;;18.60;99.90;;;;;;4992764;28;20634;-81
2022/07/03 01:17:04;;;;;;;3.45;1.23;;;18.80;99.90;;;;;;4989701;28;20216;-80
2022/07/03 01:19:43;;;;;;;1.48;1.10;;;18.90;99.90;;;;;;4991540;28;20184;-80
2022/07/03 01:22:41;;;;;;;3.90;1.20;;;18.90;99.90;;;;;;4992798;28;20227;-80
2022/07/03 01:25:12;;;;;;;1.23;0.98;;;18.70;99.90;;;;;;4992446;28;20161;-80
2022/07/03 01:27:58;;;;;;;2.38;1.10;;;18.60;99.90;;;;;;4991108;28;20571;-80
2022/07/03 01:30:27;;;;;;;1.90;1.20;;;18.60;99.90;;;;;;4991266;28;20189;-79
2022/07/03 01:33:15;;;;;;;1.80;1.20;;;18.50;99.90;;;;;;4995613;28;20173;-80
2022/07/03 01:36:04;;;;;;;3.05;1.17;;;18.50;99.90;;;;;;4996434;28;20169;-80
2022/07/03 01:38:33;;;;;;;5.90;1.35;;;18.50;99.90;;;;;;5011326;28;20204;-80
2022/07/03 01:41:01;;;;;;;1.30;1.20;;;18.40;99.90;;;;;;4995277;28;20693;-80
2022/07/03 01:43:29;;;;;;;6.28;1.10;;;18.40;99.90;;;;;;4994974;28;20231;-80
2022/07/03 01:46:00;;;;;;;2.13;1.40;;;18.50;99.90;;;;;;4994991;28;20215;-80
2022/07/03 01:48:27;;;;;;;1.75;1.10;;;18.50;99.90;;;;;;4996039;28;20189;-79
2022/07/03 01:50:54;;;;;;;1.50;0.95;;;18.40;99.90;;;;;;4996135;28;20675;-80
2022/07/03 01:53:22;;;;;;;2.92;1.13;;;18.50;99.90;;;;;;4996321;28;20165;-80
2022/07/03 01:55:50;;;;;;;2.15;1.17;;;18.50;99.90;;;;;;4996462;28;20232;-80
2022/07/03 01:58:16;;;;;;;1.83;1.20;;;18.70;99.90;;;;;;4995982;28;20725;-80
2022/07/03 02:00:52;;;;;;;6.28;1.00;;;18.70;99.90;;;;;;4994695;28;20307;-81
2022/07/03 02:03:28;;;;;;;5.55;1.25;;;18.80;99.90;;;;;;4995947;28;20172;-80
2022/07/03 02:06:05;;;;;;;1.80;1.13;;;18.70;99.90;;;;;;4996107;28;20196;-81
2022/07/03 02:09:03;;;;;;;3.15;1.30;;;18.70;99.90;;;;;;4994322;28;20654;-80
2022/07/03 02:11:34;;;;;;;4.38;1.10;;;18.70;99.90;;;;;;4995734;28;20185;-80
2022/07/03 02:14:22;;;;;;;2.45;1.00;;;18.70;99.90;;;;;;4994360;28;20177;-80
2022/07/03 02:17:05;;;;;;;1.70;1.00;;;18.60;99.90;;;;;;4995493;28;20169;-80
2022/07/03 02:19:49;;;;;;;1.33;0.80;;;18.70;99.90;;;;;;4995313;28;20243;-80
2022/07/03 02:22:24;;;;;;;1.17;0.80;;;18.80;99.90;;;;;;4995716;28;20177;-81
2022/07/03 02:24:52;;;;;;;4.68;0.90;;;18.70;99.90;;;;;;4995723;28;20201;-80
2022/07/03 02:27:24;;;;;;;1.70;1.27;;;18.70;99.90;;;;;;4995540;28;20235;-80
2022/07/03 02:30:01;;;;;;;1.10;0.77;;;18.40;99.90;;;;;;4995404;28;20185;-80
2022/07/03 02:32:30;;;;;;;2.10;0.95;;;18.40;99.90;;;;;;4994383;28;20228;-80
2022/07/03 02:35:07;;;;;;;1.45;1.00;;;18.50;99.90;;;;;;4995653;28;20685;-81
2022/07/03 02:37:45;;;;;;;1.80;1.30;;;18.20;99.90;;;;;;4995425;28;20169;-80
2022/07/03 02:40:21;;;;;;;2.60;1.00;;;18.30;99.90;;;;;;4994421;28;20221;-80
2022/07/03 02:43:20;;;;;;;1.08;0.90;;;18.30;99.90;;;;;;4994912;28;20169;-81
2022/07/03 02:45:57;;;;;;;2.67;1.42;;;18.30;99.90;;;;;;4995488;28;20170;-82
2022/07/03 02:48:31;;;;;;;9.10;1.27;;;18.50;99.90;;;;;;4995235;28;20220;-81
2022/07/03 02:51:05;;;;;;;6.18;1.30;;;18.60;99.90;;;;;;4995266;28;20176;-80
2022/07/03 02:53:48;;;;;;;0.85;0.80;;;18.60;99.90;;;;;;4995156;28;20204;-82
2022/07/03 02:56:25;;;;;;;2.20;1.10;;;18.60;99.90;;;;;;4995020;28;20169;-81
2022/07/03 02:58:59;;;;;;;5.75;1.15;;;18.40;99.90;;;;;;4994843;28;20181;-81
2022/07/03 03:01:33;;;;;;;1.70;0.90;;;18.30;99.90;;;;;;4994737;28;20209;-81
2022/07/03 03:04:08;;;;;;;1.00;0.70;;;18.30;99.90;;;;;;4993783;28;20177;-81
2022/07/03 03:06:36;;;;;;;0.85;0.70;;;18.20;99.90;;;;;;4994962;28;20169;-81
2022/07/03 03:09:09;;;;;;;1.00;0.80;;;18.20;99.90;;;;;;4994899;28;20725;-80
2022/07/03 03:11:43;;;;;;;1.75;0.88;;;18.20;99.90;;;;;;4995077;28;20185;-81
2022/07/03 03:14:12;;;;;;;1.95;0.68;;;18.10;99.90;;;;;;4994925;28;20188;-80
2022/07/03 03:16:52;;;;;;;1.33;0.80;;;18.20;99.90;;;;;;4993686;28;20172;-80
2022/07/03 03:19:23;;;;;;;3.72;0.98;;;18.00;99.90;;;;;;4994630;28;20209;-81
2022/07/03 03:22:03;;;;;;;1.55;1.15;;;18.00;99.90;;;;;;4994578;28;20267;-80
2022/07/03 03:24:30;;;;;;;1.98;0.88;;;18.10;99.90;;;;;;4996650;28;20216;-80
2022/07/03 03:26:57;;;;;;;0.52;0.52;;;18.10;99.90;;;;;;4999332;28;20638;-81
2022/07/03 03:29:23;;;;;;;2.70;0.88;;;18.20;99.90;;;;;;4999980;28;20653;-79
2022/07/03 03:31:49;;;;;;;3.25;0.57;;;18.30;99.90;;;;;;5001243;28;20185;-80
2022/07/03 03:34:16;;;;;;;3.55;0.65;;;18.40;99.90;;;;;;4999768;28;20723;-82
2022/07/03 03:36:41;;;;;;;1.15;0.73;;;18.30;99.90;;;;;;4999763;28;20173;-80
2022/07/03 03:39:08;;;;;;;7.78;0.90;;;18.10;99.90;;;;;;4998943;28;20560;-80
2022/07/03 03:41:34;;;;;;;0.82;0.80;;;18.10;99.90;;;;;;5005732;28;20686;-80
2022/07/03 03:43:59;;;;;;;0.40;0.40;;;17.90;99.90;;;;;;5013935;28;20176;-80
2022/07/03 03:46:25;;;;;;;0.70;0.70;;;17.80;99.90;;;;;;5012286;28;20177;-80
2022/07/03 03:48:51;;;;;;;5.68;0.50;;;17.80;99.90;;;;;;5013339;28;20196;-81
2022/07/03 03:51:16;;;;;;;6.43;1.00;;;17.70;99.90;;;;;;5013810;28;20168;-81
2022/07/03 03:53:42;;;;;;;0.65;0.60;;;17.80;99.90;;;;;;5012885;28;20177;-81
2022/07/03 03:56:09;;;;;;;5.80;0.82;;;17.90;99.90;;;;;;5012480;28;20174;-81
2022/07/03 03:58:37;;;;;;;1.00;0.60;;;17.80;99.90;;;;;;4999674;28;20226;-79
2022/07/03 04:01:05;;;;;;;0.70;0.70;;;17.90;99.90;;;;;;4993058;28;20635;-83
2022/07/03 04:03:32;;;;;;;1.35;0.50;;;17.80;99.90;;;;;;4992844;28;20173;-80
2022/07/03 04:05:58;;;;;;;3.70;0.73;;;17.90;99.90;;;;;;4993868;28;20240;-82
2022/07/03 04:08:25;;;;;;;1.02;0.60;;;17.90;99.90;;;;;;4993877;28;20287;-83
2022/07/03 04:10:51;;;;;;;2.70;0.88;;;18.00;99.90;;;;;;4992448;28;20528;-80
2022/07/03 04:13:20;;;;;;;2.15;0.70;;;17.90;99.90;;;;;;4992663;28;20260;-83
2022/07/03 04:15:47;;;;;;;0.57;0.50;;;17.80;99.90;;;;;;4993739;28;20177;-80
2022/07/03 04:18:13;;;;;;;2.20;0.85;;;17.90;99.90;;;;;;4992768;28;20196;-82
2022/07/03 04:20:39;;;;;;;1.35;0.68;;;17.80;99.90;;;;;;4993878;28;20284;-81
2022/07/03 04:23:04;;;;;;;6.53;1.05;;;17.70;99.90;;;;;;4993827;28;20903;-79
2022/07/03 04:25:30;;;;;;;2.05;0.70;;;17.70;99.90;;;;;;4992449;28;20181;-79
2022/07/03 04:27:56;;;;;;;1.10;0.80;;;17.70;99.90;;;;;;4993358;28;20256;-83
2022/07/03 04:30:21;;;;;;;1.80;0.70;;;17.60;99.90;;;;;;4993324;28;20194;-80
2022/07/03 04:32:47;;;;;;;0.70;0.70;;;17.80;99.90;;;;;;4992463;28;20165;-83
2022/07/03 04:35:13;;;;;;;0.82;0.63;;;17.80;99.90;;;;;;4993449;28;21276;-81
2022/07/03 04:37:39;;;;;;;2.33;0.93;;;17.80;99.90;;;;;;4993715;28;20579;-83
2022/07/03 04:40:06;;;;;;;4.68;1.10;;;17.90;99.90;;;;;;4992081;28;20221;-80
2022/07/03 04:42:31;;;;;;;0.55;0.52;;;17.90;99.90;;;;;;4993199;28;20177;-83
2022/07/03 04:44:57;;;;;;;1.73;0.93;;;18.10;99.90;;;;;;4992340;28;20196;-82
2022/07/03 04:47:23;;;;;;;0.80;0.80;;;17.90;99.90;;;;;;4993065;28;20169;-80
2022/07/03 04:49:48;;;;;;;1.25;0.98;;;18.00;99.90;;;;;;4993303;28;20193;-83
2022/07/03 04:52:14;;;;;;;0.93;0.75;;;18.00;99.90;;;;;;4992169;28;20260;-83
2022/07/03 04:54:40;;;;;;;2.08;0.93;;;18.20;99.90;;;;;;4993036;28;20626;-82
2022/07/03 04:57:06;;;;;;;1.33;0.70;;;18.20;99.90;;;;;;4993221;28;20168;-80
2022/07/03 04:59:31;;;;;;;1.08;0.80;;;18.50;99.90;;;;;;4991766;28;20243;-80
2022/07/03 05:01:57;;;;;;;9.70;1.10;;;18.60;99.90;;;;;;4991738;28;20216;-83
2022/07/03 05:04:23;;;;;;;0.70;0.70;;;18.60;99.90;;;;;;4991520;28;20188;-80
2022/07/03 05:06:48;;;;;;;1.52;0.85;;;18.50;99.90;;;;;;4996077;28;20614;-80
2022/07/03 05:09:14;;;;;;;2.13;0.90;;;18.60;99.90;;;;;;4997033;28;20717;-82
2022/07/03 05:11:41;;;;;;;2.25;1.05;;;18.60;99.90;;;;;;4995764;28;20580;-80
2022/07/03 05:14:07;;;;;;;3.38;0.75;;;18.70;99.90;;;;;;4996807;28;20215;-79
2022/07/03 05:16:33;;;;;;;1.27;1.00;;;18.90;99.90;;;;;;4996951;28;20173;-84
2022/07/03 05:18:59;;;;;;;1.50;1.17;;;18.90;99.90;;;;;;4996900;28;20193;-83
2022/07/03 05:21:25;;;;;;;2.92;1.10;;;18.80;99.90;;;;;;4996929;28;20216;-85
2022/07/03 05:23:51;;;;;;;2.25;1.13;;;18.60;99.90;;;;;;4997001;28;20507;-81
2022/07/03 05:26:17;;;;;;;1.48;1.05;;;18.50;99.90;;;;;;4997225;28;20256;-82
2022/07/03 05:28:42;;;;;;;2.42;1.25;;;18.20;99.90;;;;;;4997213;28;20531;-86
2022/07/03 05:31:08;;;;;;;3.70;1.25;;;18.10;99.90;;;;;;4997290;28;20209;-83
2022/07/03 05:33:34;;;;;;;6.15;1.30;;;18.10;99.90;;;;;;4997845;28;20197;-82
2022/07/03 05:36:00;;;;;;;4.78;1.40;;;18.10;99.90;;;;;;5001051;28;20173;-82
2022/07/03 05:41:11;;;;;;;2.58;1.45;;;18.20;99.90;;;;;;5000079;28;20221;-85
2022/07/03 05:43:37;;;;;;;1.30;1.15;;;18.40;99.90;;;;;;4997256;28;20169;-82
2022/07/03 05:46:04;;;;;;;3.25;1.20;;;18.30;99.90;;;;;;4996755;28;20180;-82
2022/07/03 05:48:30;;;;;;;10.88;1.40;;;18.20;99.90;;;;;;4995732;28;20196;-86
2022/07/03 05:50:56;;;;;;;1.42;1.02;;;18.30;99.90;;;;;;4995799;28;20667;-87
2022/07/03 05:53:22;;;;;;;2.90;1.50;;;18.40;99.90;;;;;;4997134;28;20165;-85
2022/07/03 05:55:47;;;;;;;5.25;1.27;;;18.60;99.90;;;;;;4997115;28;20180;-84
2022/07/03 05:58:13;;;;;;;3.20;1.20;;;18.60;99.90;;;;;;4996799;28;20324;-82
2022/07/03 06:00:39;;;;;;;3.42;1.15;;;18.50;99.90;;;;;;4995336;28;20201;-82
2022/07/03 06:03:05;;;;;;;2.15;1.30;;;18.60;99.90;;;;;;4995731;28;20173;-82
2022/07/03 06:05:32;;;;;;;4.47;1.65;;;18.70;99.90;;;;;;4996130;28;20243;-87
2022/07/03 06:07:58;;;;;;;1.83;1.20;;;18.80;99.90;;;;;;4995921;28;20173;-81
2022/07/03 06:10:24;;;;;;;2.90;1.45;;;18.80;99.90;;;;;;4995222;28;20264;-82
2022/07/03 06:12:50;;;;;;;2.38;1.90;;;18.70;99.90;;;;;;4994842;28;20644;-80
2022/07/03 06:15:15;;;;;;;5.57;1.80;;;18.50;99.90;;;;;;4996200;28;20169;-81
2022/07/03 06:17:41;;;;;;;1.83;1.10;;;18.60;99.90;;;;;;4994142;28;20174;-81
2022/07/03 06:20:07;;;;;;;3.88;1.42;;;18.70;99.90;;;;;;4995835;28;20192;-82
2022/07/03 06:22:33;;;;;;;2.72;1.23;;;18.70;99.90;;;;;;4994849;28;20199;-80
2022/07/03 06:24:59;;;;;;;2.08;1.48;;;19.00;99.90;;;;;;4995903;28;20192;-80
2022/07/03 06:27:25;;;;;;;6.15;1.52;;;18.90;99.90;;;;;;4995751;28;20207;-81
2022/07/03 06:29:51;;;;;;;1.80;1.20;;;18.90;99.90;;;;;;4995635;28;20221;-81
2022/07/03 06:32:17;;;;;;;3.50;1.50;;;18.80;99.90;;;;;;4994660;28;20169;-81
2022/07/03 06:34:43;;;;;;;5.47;1.35;;;19.00;99.90;;;;;;4994449;28;20219;-81
2022/07/03 06:37:09;;;;;;;2.42;1.30;;;19.20;99.90;;;;;;4996102;28;20174;-81
2022/07/03 06:39:35;;;;;;;2.05;1.50;;;19.50;99.90;;;;;;4994939;28;20280;-82
2022/07/03 06:42:01;;;;;;;5.85;1.25;;;19.50;99.90;;;;;;4993649;28;20315;-79
2022/07/03 06:44:27;;;;;;;4.05;1.30;;;19.60;99.90;;;;;;4994079;28;20157;-80
2022/07/03 06:46:52;;;;;;;10.65;1.90;;;19.40;99.90;;;;;;4996187;28;20205;-84
2022/07/03 06:49:18;;;;;;;2.70;1.00;;;19.30;99.90;;;;;;4995412;28;20192;-84
2022/07/03 06:51:43;;;;;;;2.33;1.13;;;19.40;99.90;;;;;;4995299;28;20538;-84
2022/07/03 06:54:09;;;;;;;4.87;1.40;;;19.70;99.90;;;;;;4994873;28;20464;-85
2022/07/03 06:56:35;;;;;;;5.13;1.52;;;19.90;99.90;;;;;;4995043;28;20431;-85
2022/07/03 06:59:00;;;;;;;1.48;1.00;;;20.30;99.90;;;;;;4996258;28;20196;-85
2022/07/03 07:01:26;;;;;;;3.40;1.05;;;20.60;99.90;;;;;;4994700;28;20299;-83
2022/07/03 07:03:51;;;;;;;4.25;1.02;;;20.90;99.90;;;;;;4994801;28;20180;-85
2022/07/03 07:06:17;;;;;;;1.30;0.80;;;21.40;99.90;;;;;;4995006;28;20187;-87
2022/07/03 07:08:43;;;;;;;3.53;0.68;;;21.80;99.90;;;;;;4995737;28;20232;-87
2022/07/03 07:11:08;;;;;;;3.45;0.90;;;22.40;99.90;;;;;;4995448;28;20185;-86
2022/07/03 07:13:34;;;;;;;2.72;1.00;;;22.70;99.90;;;;;;4995282;28;20173;-86
2022/07/03 07:16:00;;;;;;;2.47;1.08;;;22.90;99.90;;;;;;4995198;28;20169;-88
2022/07/03 07:18:26;;;;;;;2.35;1.42;;;23.00;99.90;;;;;;4994653;28;20204;-90
2022/07/03 07:20:52;;;;;;;5.97;2.63;;;23.40;99.90;;;;;;4995340;28;20205;-85
2022/07/03 07:23:18;;;;;;;10.13;2.97;;;23.20;99.90;;;;;;4995077;28;20169;-85
2022/07/03 07:25:43;;;;;;;5.13;3.13;;;23.40;99.90;;;;;;4994297;28;20220;-82
2022/07/03 07:28:09;;;;;;;3.88;2.47;;;23.20;99.90;;;;;;4993546;28;20165;-81
2022/07/03 07:30:34;;;;;;;3.03;2.05;;;23.50;99.90;;;;;;4994642;28;20235;-81
2022/07/03 07:33:00;;;;;;;4.50;1.55;;;23.00;99.90;;;;;;4995000;28;20173;-81
2022/07/03 07:35:26;;;;;;;4.03;1.35;;;22.60;99.90;;;;;;4994780;28;20529;-79
2022/07/03 07:37:51;;;;;;;2.13;1.10;;;22.90;99.90;;;;;;4995076;28;20188;-80
2022/07/03 07:40:17;;;;;;;3.35;0.98;;;23.70;99.90;;;;;;4994447;28;20166;-79
2022/07/03 07:42:42;;;;;;;1.00;0.90;;;24.60;99.90;;;;;;4993455;28;20181;-80
2022/07/03 07:45:10;;;;;;;2.08;1.05;;;25.10;99.90;;;;;;4994772;28;20165;-79
2022/07/03 07:47:36;;;;;;;4.30;1.08;;;25.20;99.90;;;;;;4994831;28;20688;-80
2022/07/03 07:50:02;;;;;;;2.90;0.80;;;25.40;99.90;;;;;;4994523;28;20189;-79
2022/07/03 07:52:28;;;;;;;8.95;1.30;;;25.20;99.90;;;;;;4995207;28;20268;-79
2022/07/03 07:54:53;;;;;;;1.58;0.98;;;24.70;99.90;;;;;;4994479;28;20248;-79
2022/07/03 07:57:19;;;;;;;3.38;0.95;;;24.10;99.90;;;;;;4994605;28;20252;-83
2022/07/03 07:59:44;;;;;;;2.00;1.08;;;23.60;99.90;;;;;;4993340;28;20188;-79
2022/07/03 08:07:41;;;;;;;4.13;1.13;;;22.80;99.90;;;;;;4993792;28;20236;-79
2022/07/03 08:10:07;;;;;;;6.03;1.10;;;22.60;99.90;;;;;;4995053;28;20220;-80
2022/07/03 08:12:33;;;;;;;5.50;1.45;;;22.40;99.90;;;;;;4995919;28;20204;-80
2022/07/03 08:14:58;;;;;;;1.95;0.80;;;22.30;99.90;;;;;;5015662;28;20156;-79
2022/07/03 08:17:24;;;;;;;3.78;1.17;;;22.30;99.90;;;;;;5007091;28;20177;-83
2022/07/03 08:19:49;;;;;;;3.30;0.73;;;22.40;99.90;;;;;;4993973;28;20181;-81
2022/07/03 08:22:15;;;;;;;1.70;0.80;;;22.50;99.90;;;;;;4993675;28;20248;-79
2022/07/03 08:24:40;;;;;;;1.17;0.77;;;22.50;99.90;;;;;;4994004;28;20168;-81
2022/07/03 08:27:06;;;;;;;1.48;0.57;;;22.50;99.90;;;;;;4992445;28;20541;-78
2022/07/03 08:29:32;;;;;;;3.08;0.90;;;22.60;99.90;;;;;;4993821;28;20192;-80
2022/07/03 08:31:57;;;;;;;4.28;0.75;;;22.30;99.90;;;;;;4993776;28;20184;-80
2022/07/03 08:34:23;;;;;;;2.20;0.80;;;22.40;99.90;;;;;;4993749;28;20212;-81
2022/07/03 08:36:49;;;;;;;3.50;0.88;;;22.60;99.90;;;;;;4993550;28;20579;-81
2022/07/03 08:39:15;;;;;;;3.55;0.90;;;22.80;99.90;;;;;;4992168;28;20228;-80
2022/07/03 08:41:41;;;;;;;3.10;0.77;;;23.00;99.90;;;;;;4993136;28;20239;-80
2022/07/03 08:44:12;;;;;;;2.05;0.90;;;22.90;99.90;;;;;;4993519;28;20161;-80
2022/07/03 08:46:40;;;;;;;3.83;0.60;;;22.70;99.90;;;;;;4993510;28;20200;-79
2022/07/03 08:49:06;;;;;;;2.42;0.80;;;22.80;99.90;;;;;;4993717;28;20185;-82
2022/07/03 08:51:32;;;;;;;1.42;0.90;;;23.00;99.90;;;;;;4993621;28;20165;-88
2022/07/03 08:54:03;;;;;;;2.33;1.02;;;22.60;99.90;;;;;;4993111;28;20200;-84
2022/07/03 08:56:28;;;;;;;3.25;0.90;;;22.40;99.90;;;;;;4992800;28;20161;-89
2022/07/03 08:59:01;;;;;;;1.40;0.65;;;22.50;99.90;;;;;;4995946;28;20201;-85
2022/07/03 09:01:30;;;;;;;7.55;0.70;;;22.70;99.90;;;;;;4995453;28;20254;-86
2022/07/03 09:03:57;;;;;;;1.23;0.60;;;23.10;99.90;;;;;;4995487;28;20585;-84
2022/07/03 09:06:23;;;;;;;5.32;0.90;;;23.30;99.90;;;;;;4997375;28;20169;-84
2022/07/03 09:08:50;;;;;;;1.10;0.70;;;23.20;99.90;;;;;;4994864;28;20204;-85
2022/07/03 09:11:17;;;;;;;2.63;1.08;;;23.30;99.90;;;;;;4993826;28;20180;-85
2022/07/03 09:13:42;;;;;;;1.80;0.75;;;23.40;99.90;;;;;;4998465;28;20252;-86
2022/07/03 09:16:15;;;;;;;1.38;0.40;;;23.10;99.90;;;;;;4995206;28;20626;-85
2022/07/03 09:18:45;;;;;;;1.77;0.55;;;23.10;99.90;;;;;;4995598;28;20606;-86
2022/07/03 09:21:11;;;;;;;1.90;0.70;;;23.60;99.90;;;;;;4995944;28;20176;-88
2022/07/03 09:23:42;;;;;;;4.18;0.73;;;23.80;99.90;;;;;;4996434;28;20213;-88
2022/07/03 09:26:19;;;;;;;1.52;0.70;;;23.70;99.90;;;;;;4996294;28;20274;-88
2022/07/03 09:28:51;;;;;;;8.18;1.08;;;24.10;99.90;;;;;;4995223;28;20607;-89
2022/07/03 09:31:27;;;;;;;2.60;0.52;;;24.30;99.90;;;;;;4996875;28;20222;-86
2022/07/03 09:34:07;;;;;;;1.42;0.70;;;24.00;99.90;;;;;;4995707;28;20164;-82
2022/07/03 09:36:58;;;;;;;2.10;0.75;;;24.30;99.90;;;;;;4995500;28;20176;-81
2022/07/03 09:39:37;;;;;;;0.73;0.70;;;24.30;99.90;;;;;;4994545;28;20197;-82
2022/07/03 09:42:09;;;;;;;1.63;0.68;;;24.10;99.90;;;;;;4993279;28;20205;-84
2022/07/03 09:44:36;;;;;;;3.85;0.60;;;23.70;99.90;;;;;;4992046;28;20215;-84
2022/07/03 09:47:13;;;;;;;0.90;0.60;;;23.70;99.90;;;;;;4992603;28;20168;-82
2022/07/03 09:49:59;;;;;;;0.98;0.60;;;23.90;99.90;;;;;;4991430;28;20288;-81
2022/07/03 09:52:43;;;;;;;1.42;0.77;;;24.00;99.90;;;;;;4996543;28;20470;-81
2022/07/03 09:55:08;;;;;;;1.15;0.80;;;24.30;99.90;;;;;;4996882;28;20169;-80
2022/07/03 09:57:34;;;;;;;2.40;0.60;;;24.40;99.90;;;;;;4996367;28;20196;-80
2022/07/03 10:00:20;;;;;;;0.50;0.50;;;24.60;99.90;;;;;;4996175;28;20239;-81
2022/07/03 10:03:06;;;;;;;3.15;0.57;;;24.40;99.90;;;;;;4996335;28;20673;-80
2022/07/03 10:05:35;;;;;;;2.65;0.50;;;24.10;99.90;;;;;;4995096;28;20256;-80
2022/07/03 10:08:04;;;;;;;0.65;0.40;;;24.00;99.90;;;;;;4995973;28;20256;-80
2022/07/03 10:10:35;;;;;;;0.68;0.50;;;24.10;99.90;;;;;;4995056;28;20596;-80
2022/07/03 10:13:01;;;;;;;4.05;0.55;;;24.40;99.90;;;;;;4996338;28;20172;-80
2022/07/03 10:15:28;;;;;;;0.40;0.40;;;24.30;99.90;;;;;;4995035;28;20212;-81
2022/07/03 10:17:56;;;;;;;0.73;0.63;;;24.20;99.90;;;;;;4996064;28;20192;-80
2022/07/03 10:20:32;;;;;;;2.80;0.70;;;24.40;99.90;;;;;;4994825;28;20276;-81
2022/07/03 10:22:58;;;;;;;1.00;0.40;;;24.50;99.90;;;;;;4996230;28;20615;-80
2022/07/03 10:25:24;;;;;;;0.88;0.50;;;24.30;99.90;;;;;;4994576;28;20215;-80
2022/07/03 10:27:50;;;;;;;1.13;0.60;;;23.80;99.90;;;;;;4996639;28;20165;-80
2022/07/03 10:30:18;;;;;;;2.72;0.50;;;23.90;99.90;;;;;;4996838;28;20201;-80
2022/07/03 10:32:49;;;;;;;0.82;0.65;;;23.60;99.90;;;;;;4996205;28;20204;-80
2022/07/03 10:35:32;;;;;;;0.63;0.50;;;23.50;99.90;;;;;;4997916;28;20257;-80
2022/07/03 10:38:00;;;;;;;4.65;0.47;;;23.70;99.90;;;;;;4998432;28;20180;-81
2022/07/03 10:46:29;;;;;;;2.65;0.60;;;23.40;99.90;;;;;;5009499;28;20539;-81
2022/07/03 10:49:06;;;;;;;1.65;0.90;;;23.50;99.90;;;;;;5018550;28;20177;-81
2022/07/03 10:51:52;;;;;;;1.27;0.60;;;23.70;99.90;;;;;;4996065;28;20259;-79
2022/07/03 10:54:24;;;;;;;0.82;0.55;;;23.90;99.90;;;;;;4994517;28;20161;-80
2022/07/03 10:57:02;;;;;;;1.08;0.50;;;24.00;99.90;;;;;;4994517;28;20637;-80
2022/07/03 10:59:37;;;;;;;2.53;0.75;;;24.40;99.90;;;;;;4993912;28;20780;-81
2022/07/03 11:02:26;;;;;;;1.95;0.50;;;24.80;99.90;;;;;;4994461;28;20236;-79
2022/07/03 11:04:59;;;;;;;1.08;0.60;;;25.00;99.90;;;;;;4995297;28;20169;-80
2022/07/03 11:07:26;;;;;;;3.13;0.65;;;24.90;99.90;;;;;;4995480;28;20176;-79
2022/07/03 11:10:24;;;;;;;0.40;0.40;;;24.90;99.90;;;;;;4994178;28;20220;-80
2022/07/03 11:12:56;;;;;;;0.90;0.70;;;24.70;99.90;;;;;;4983623;28;20259;-80
2022/07/03 11:15:27;;;;;;;2.33;0.98;;;24.60;99.90;;;;;;4993808;28;20177;-80
2022/07/03 11:18:11;;;;;;;4.43;0.68;;;24.40;99.90;;;;;;4995540;28;20303;-81
2022/07/03 11:20:58;;;;;;;4.65;0.70;;;24.50;99.90;;;;;;4993820;28;20262;-80
2022/07/03 11:23:33;;;;;;;1.85;0.60;;;24.40;99.90;;;;;;4995112;28;20166;-80
2022/07/03 11:26:20;;;;;;;0.40;0.30;;;24.50;99.90;;;;;;4995302;28;20172;-81
2022/07/03 11:28:46;;;;;;;1.75;0.70;;;24.50;99.90;;;;;;4994902;28;20677;-80
2022/07/03 11:31:16;;;;;;;2.03;0.80;;;24.30;99.90;;;;;;4994661;28;20200;-81
2022/07/03 11:33:53;;;;;;;1.42;0.65;;;24.30;99.90;;;;;;4994726;28;20166;-80
2022/07/03 11:36:22;;;;;;;3.80;0.88;;;24.40;99.90;;;;;;4994650;28;20200;-83
2022/07/03 11:39:04;;;;;;;2.53;0.75;;;24.30;99.90;;;;;;4994693;28;20189;-87
2022/07/03 11:41:35;;;;;;;1.33;0.80;;;24.40;99.90;;;;;;4995676;28;20207;-82
2022/07/03 11:44:03;;;;;;;2.95;0.80;;;24.30;99.90;;;;;;4994268;28;20182;-86
2022/07/03 11:46:31;;;;;;;1.35;0.73;;;24.30;99.90;;;;;;4995829;28;20170;-82
2022/07/03 11:49:24;;;;;;;0.70;0.70;;;24.30;99.90;;;;;;4995902;28;20217;-85
2022/07/03 11:52:01;;;;;;;2.58;0.80;;;24.50;99.90;;;;;;4995150;28;20205;-87
2022/07/03 11:54:48;;;;;;;0.50;0.40;;;24.60;99.90;;;;;;4995528;28;20240;-86
2022/07/03 11:57:14;;;;;;;1.60;0.60;;;24.50;99.90;;;;;;4994442;28;20207;-85
2022/07/03 11:59:40;;;;;;;1.17;0.50;;;24.40;99.90;;;;;;4997500;28;20181;-84
2022/07/03 12:02:06;;;;;;;0.93;0.45;;;24.40;99.90;;;;;;4995790;28;20737;-83
2022/07/03 12:04:32;;;;;;;1.08;0.43;;;24.20;99.90;;;;;;4993916;28;20220;-86
2022/07/03 12:06:59;;;;;;;0.73;0.50;;;24.10;99.90;;;;;;4994827;28;20712;-87
2022/07/03 12:09:33;;;;;;;0.60;0.60;;;24.20;99.90;;;;;;4993910;28;20201;-89
2022/07/03 12:12:07;;;;;;;0.45;0.35;;;24.40;99.90;;;;;;4998332;28;20576;-83
2022/07/03 12:14:40;;;;;;;2.20;0.63;;;24.70;99.90;;;;;;4995205;28;20184;-85
2022/07/03 12:17:08;;;;;;;8.55;0.88;;;25.10;99.90;;;;;;4996722;28;20208;-83
2022/07/03 12:19:34;;;;;;;1.65;0.52;;;25.30;99.90;;;;;;4994409;28;20629;-84
2022/07/03 12:22:00;;;;;;;2.40;0.47;;;25.10;99.90;;;;;;4995552;28;20307;-87
2022/07/03 12:24:26;;;;;;;1.55;0.70;;;25.30;99.90;;;;;;4995964;28;20177;-85
2022/07/03 12:26:52;;;;;;;1.50;0.85;;;25.20;99.90;;;;;;4995233;28;20175;-83
2022/07/03 12:29:18;;;;;;;2.17;0.50;;;25.00;99.90;;;;;;4993973;28;20694;-82
2022/07/03 12:31:46;;;;;;;1.33;0.50;;;24.70;99.90;;;;;;4994165;28;20196;-87
2022/07/03 12:34:13;;;;;;;0.47;0.40;;;24.50;99.90;;;;;;4994303;28;20175;-88
2022/07/03 12:36:39;;;;;;;2.15;0.70;;;24.30;99.90;;;;;;4994271;28;20169;-85
2022/07/03 12:39:05;;;;;;;1.27;0.68;;;24.40;99.90;;;;;;4994612;28;20232;-84
2022/07/03 12:41:32;;;;;;;4.53;0.80;;;24.50;99.90;;;;;;4995301;28;20209;-88
2022/07/03 12:43:59;;;;;;;1.23;0.45;;;24.40;99.90;;;;;;4995434;28;20252;-87
2022/07/03 12:46:34;;;;;;;0.60;0.50;;;24.50;99.90;;;;;;4993955;28;20193;-86
2022/07/03 12:49:09;;;;;;;4.80;1.00;;;24.50;99.90;;;;;;4993775;28;20200;-82
2022/07/03 12:51:53;;;;;;;1.45;0.70;;;24.80;99.90;;;;;;4995730;28;20179;-82
2022/07/03 12:54:33;;;;;;;3.60;0.50;;;24.80;99.90;;;;;;4993259;28;20172;-86
2022/07/03 13:00:12;;;;;;;0.75;0.73;;;24.60;99.90;;;;;;4996281;28;20270;-86
2022/07/03 13:02:49;;;;;;;1.33;0.63;;;24.70;99.90;;;;;;5005127;28;20191;-86
2022/07/03 13:05:25;;;;;;;0.90;0.43;;;24.70;99.90;;;;;;4997385;28;20202;-88
2022/07/03 13:07:58;;;;;;;1.23;0.60;;;24.50;99.90;;;;;;5006069;28;20167;-80
2022/07/03 13:10:24;;;;;;;3.20;0.88;;;24.30;99.90;;;;;;5001679;28;20219;-85
2022/07/03 13:12:55;;;;;;;2.97;1.92;;;24.40;99.90;;;;;;4999373;28;20264;-81
2022/07/03 13:15:28;;;;;;;2.20;1.05;;;24.50;99.90;;;;;;4994046;28;20641;-86
2022/07/03 13:17:54;;;;;;;1.77;0.98;;;24.70;99.90;;;;;;5003844;28;20234;-81